createdAt,value
2022-11-20T00:01:09.304Z,13.20
2022-11-20T00:03:36.405Z,15.23
2022-11-20T00:06:05.029Z,11.55
2022-11-20T00:08:33.170Z,14.23
2022-11-20T00:11:03.952Z,15.10
2022-11-20T00:13:30.684Z,13.73
2022-11-20T00:16:01.359Z,13.00
2022-11-20T00:18:28.264Z,13.02
2022-11-20T00:21:00.852Z,17.38
2022-11-20T00:23:27.556Z,15.73
2022-11-20T00:25:55.600Z,11.85
2022-11-20T00:28:22.331Z,13.63
2022-11-20T00:30:49.040Z,15.98
2022-11-20T00:33:15.765Z,15.35
2022-11-20T00:35:42.422Z,15.70
2022-11-20T00:38:09.097Z,12.65
2022-11-20T00:40:35.814Z,13.32
2022-11-20T00:43:03.833Z,12.85
2022-11-20T00:45:30.494Z,10.50
2022-11-20T00:47:57.211Z,16.70
2022-11-20T00:50:23.944Z,15.02
2022-11-20T00:52:50.728Z,16.30
2022-11-20T00:55:17.450Z,15.32
2022-11-20T00:57:44.237Z,9.25
2022-11-20T01:00:12.780Z,15.50
2022-11-20T01:02:39.456Z,11.68
2022-11-20T01:05:06.401Z,13.05
2022-11-20T01:07:33.560Z,11.98
2022-11-20T01:10:00.312Z,12.80
2022-11-20T01:12:27.059Z,13.00
2022-11-20T01:14:53.771Z,12.90
2022-11-20T01:17:21.779Z,13.23
2022-11-20T01:19:50.026Z,13.90
2022-11-20T01:22:16.747Z,13.90
2022-11-20T01:24:43.444Z,15.52
2022-11-20T01:27:10.132Z,12.43
2022-11-20T01:29:36.803Z,15.70
2022-11-20T01:32:03.605Z,12.18
2022-11-20T01:34:31.813Z,9.18
2022-11-20T01:36:58.536Z,14.00
2022-11-20T01:39:26.805Z,13.75
2022-11-20T01:41:55.617Z,13.70
2022-11-20T01:44:43.307Z,11.23
2022-11-20T01:47:12.928Z,11.02
2022-11-20T01:49:46.725Z,11.75
2022-11-20T01:52:18.314Z,12.75
2022-11-20T01:54:49.628Z,13.27
2022-11-20T01:57:19.208Z,13.73
2022-11-20T01:59:52.234Z,14.77
2022-11-20T02:02:19.036Z,12.63
2022-11-20T02:04:48.040Z,15.10
2022-11-20T02:09:41.403Z,8.57
2022-11-20T02:12:08.214Z,10.77
2022-11-20T02:14:34.898Z,13.00
2022-11-20T02:17:01.621Z,12.95
2022-11-20T02:19:30.646Z,9.88
2022-11-20T02:24:30.019Z,12.52
2022-11-20T02:27:01.845Z,15.77
2022-11-20T02:29:34.685Z,12.18
2022-11-20T02:32:02.814Z,10.60
2022-11-20T02:34:29.629Z,14.23
2022-11-20T02:36:57.440Z,13.57
2022-11-20T02:39:27.284Z,14.38
2022-11-20T02:41:57.196Z,11.95
2022-11-20T02:44:23.892Z,13.60
2022-11-20T02:46:50.557Z,15.80
2022-11-20T02:49:17.266Z,14.88
2022-11-20T02:51:44.026Z,14.13
2022-11-20T02:54:10.784Z,9.40
2022-11-20T02:56:39.011Z,15.77
2022-11-20T02:59:07.120Z,13.43
2022-11-20T03:01:34.006Z,12.20
2022-11-20T03:04:00.782Z,14.27
2022-11-20T03:06:27.506Z,14.48
2022-11-20T03:08:54.406Z,15.05
2022-11-20T03:11:21.351Z,13.38
2022-11-20T03:13:48.033Z,14.25
2022-11-20T03:16:18.517Z,9.57
2022-11-20T03:18:45.566Z,15.15
2022-11-20T03:21:13.802Z,11.43
2022-11-20T03:23:41.189Z,14.63
2022-11-20T03:26:09.584Z,15.90
2022-11-20T03:28:36.358Z,14.13
2022-11-20T03:31:07.008Z,16.48
2022-11-20T03:33:35.093Z,13.05
2022-11-20T03:36:03.073Z,14.97
2022-11-20T03:38:30.373Z,14.10
2022-11-20T03:40:59.880Z,11.30
2022-11-20T03:43:26.614Z,13.15
2022-11-20T03:45:53.332Z,13.75
2022-11-20T03:48:20.060Z,13.27
2022-11-20T03:50:48.123Z,8.70
2022-11-20T03:53:14.868Z,9.20
2022-11-20T03:55:41.633Z,13.77
2022-11-20T03:58:08.451Z,12.32
2022-11-20T04:00:35.400Z,15.38
2022-11-20T04:03:03.063Z,14.55
2022-11-20T04:05:29.959Z,17.38
2022-11-20T04:07:58.764Z,12.25
2022-11-20T04:10:25.452Z,10.63
2022-11-20T04:12:52.524Z,15.18
2022-11-20T04:15:19.248Z,11.73
2022-11-20T04:17:45.928Z,12.90
2022-11-20T04:20:12.713Z,15.63
2022-11-20T04:22:39.475Z,16.15
2022-11-20T04:25:08.477Z,12.60
2022-11-20T04:30:01.750Z,12.60
2022-11-20T04:32:28.792Z,13.52
2022-11-20T04:34:55.479Z,15.10
2022-11-20T04:37:22.197Z,13.60
2022-11-20T04:39:49.059Z,11.07
2022-11-20T04:42:17.289Z,15.25
2022-11-20T04:44:44.027Z,13.18
2022-11-20T04:47:10.753Z,14.05
2022-11-20T04:49:37.504Z,13.82
2022-11-20T04:52:04.363Z,8.48
2022-11-20T04:54:31.042Z,16.77
2022-11-20T04:56:57.731Z,14.75
2022-11-20T04:59:25.866Z,17.45
2022-11-20T05:01:52.755Z,17.33
2022-11-20T05:04:19.766Z,12.07
2022-11-20T05:06:46.562Z,14.20
2022-11-20T05:09:13.513Z,7.80
2022-11-20T05:11:40.231Z,13.18
2022-11-20T05:14:06.963Z,12.07
2022-11-20T05:16:35.769Z,11.63
2022-11-20T05:19:03.086Z,14.85
2022-11-20T05:21:31.471Z,10.95
2022-11-20T05:23:58.196Z,21.98
2022-11-20T05:26:24.897Z,17.90
2022-11-20T05:28:52.352Z,14.10
2022-11-20T05:31:26.173Z,12.43
2022-11-20T05:33:56.312Z,18.17
2022-11-20T05:36:23.104Z,16.00
2022-11-20T05:38:51.179Z,15.98
2022-11-20T05:41:20.050Z,19.52
2022-11-20T05:43:48.349Z,19.33
2022-11-20T05:46:17.661Z,23.85
2022-11-20T05:48:45.086Z,18.40
2022-11-20T05:51:15.114Z,15.55
2022-11-20T05:53:47.860Z,14.15
2022-11-20T05:56:16.624Z,13.90
2022-11-20T05:58:43.465Z,15.57
2022-11-20T06:01:12.461Z,18.67
2022-11-20T06:06:07.229Z,14.82
2022-11-20T06:08:35.683Z,14.90
2022-11-20T06:11:05.531Z,13.48
2022-11-20T06:13:32.452Z,14.50
2022-11-20T06:15:59.379Z,13.13
2022-11-20T06:18:27.748Z,9.32
2022-11-20T06:21:00.942Z,17.08
2022-11-20T06:23:29.820Z,20.23
2022-11-20T06:25:58.168Z,15.93
2022-11-20T06:28:24.869Z,15.10
2022-11-20T06:30:51.529Z,13.80
2022-11-20T06:33:18.419Z,17.05
2022-11-20T06:35:45.153Z,15.05
2022-11-20T06:38:11.893Z,14.75
2022-11-20T06:40:41.461Z,15.80
2022-11-20T06:43:09.808Z,17.52
2022-11-20T06:45:36.600Z,16.00
2022-11-20T06:48:03.784Z,14.77
2022-11-20T06:50:30.823Z,15.73
2022-11-20T06:52:57.582Z,13.77
2022-11-20T06:55:24.323Z,16.33
2022-11-20T06:57:54.790Z,14.18
2022-11-20T07:00:24.120Z,16.00
2022-11-20T07:02:50.851Z,15.55
2022-11-20T07:05:18.026Z,15.68
2022-11-20T07:07:44.762Z,19.42
2022-11-20T07:10:12.068Z,14.82
2022-11-20T07:12:38.815Z,13.80
2022-11-20T07:15:06.815Z,15.40
2022-11-20T07:17:34.849Z,20.20
2022-11-20T07:20:01.569Z,18.47
2022-11-20T07:22:28.253Z,18.67
2022-11-20T07:24:54.941Z,14.82
2022-11-20T07:27:21.650Z,18.63
2022-11-20T07:29:48.360Z,18.05
2022-11-20T07:32:15.077Z,15.63
2022-11-20T07:34:43.147Z,15.00
2022-11-20T07:37:10.643Z,17.37
2022-11-20T07:39:37.393Z,17.20
2022-11-20T07:42:04.128Z,17.95
2022-11-20T07:44:30.825Z,17.50
2022-11-20T07:46:57.530Z,19.20
2022-11-20T07:49:24.490Z,20.00
2022-11-20T07:51:52.853Z,21.08
2022-11-20T07:54:19.597Z,16.23
2022-11-20T07:56:46.275Z,17.83
2022-11-20T07:59:13.193Z,21.60
2022-11-20T08:01:40.270Z,23.67
2022-11-20T08:04:07.581Z,21.60
2022-11-20T08:06:34.426Z,14.75
2022-11-20T08:09:03.266Z,19.67
2022-11-20T08:11:30.002Z,15.10
2022-11-20T08:13:56.707Z,17.00
2022-11-20T08:16:23.487Z,21.65
2022-11-20T08:18:50.243Z,19.80
2022-11-20T08:21:16.998Z,17.85
2022-11-20T08:23:43.751Z,20.75
2022-11-20T08:26:11.937Z,18.25
2022-11-20T08:28:38.720Z,14.05
2022-11-20T08:31:05.843Z,18.63
2022-11-20T08:33:32.553Z,19.23
2022-11-20T08:36:00.640Z,17.05
2022-11-20T08:38:27.368Z,19.00
2022-11-20T08:40:57.840Z,22.00
2022-11-20T08:43:25.976Z,20.23
2022-11-20T08:45:52.780Z,21.45
2022-11-20T08:48:19.489Z,13.48
2022-11-20T08:50:46.286Z,20.08
2022-11-20T08:53:13.026Z,21.17
2022-11-20T08:55:39.772Z,18.08
2022-11-20T08:58:07.054Z,23.13
2022-11-20T09:00:35.388Z,19.00
2022-11-20T09:03:02.652Z,21.30
2022-11-20T09:05:29.651Z,22.70
2022-11-20T09:07:57.767Z,14.00
2022-11-20T09:10:25.163Z,21.00
2022-11-20T09:12:52.070Z,19.27
2022-11-20T09:15:19.621Z,23.85
2022-11-20T09:17:53.108Z,27.45
2022-11-20T09:20:20.407Z,24.38
2022-11-20T09:22:47.142Z,20.27
2022-11-20T09:25:13.889Z,25.90
2022-11-20T09:27:40.703Z,16.55
2022-11-20T09:30:08.545Z,20.88
2022-11-20T09:32:35.305Z,22.00
2022-11-20T09:35:03.629Z,17.67
2022-11-20T09:37:30.422Z,17.45
2022-11-20T09:39:57.257Z,19.63
2022-11-20T09:42:33.726Z,21.85
2022-11-20T09:45:15.896Z,24.83
2022-11-20T09:47:59.492Z,23.83
2022-11-20T09:50:33.613Z,28.17
2022-11-20T09:53:13.059Z,25.83
2022-11-20T09:55:40.528Z,22.30
2022-11-20T09:58:08.438Z,26.33
2022-11-20T10:00:37.784Z,28.27
2022-11-20T10:03:14.173Z,24.27
2022-11-20T10:05:45.887Z,24.05
2022-11-20T10:08:19.728Z,22.65
2022-11-20T10:10:52.607Z,24.13
2022-11-20T10:13:32.868Z,16.45
2022-11-20T10:18:43.075Z,24.25
2022-11-20T10:21:21.040Z,19.08
2022-11-20T10:24:05.293Z,18.95
2022-11-20T10:26:41.581Z,25.17
2022-11-20T10:29:12.950Z,21.33
2022-11-20T10:31:42.313Z,22.40
2022-11-20T10:34:22.777Z,28.15
2022-11-20T10:36:55.905Z,27.13
2022-11-20T10:39:32.145Z,33.45
2022-11-20T10:42:00.267Z,26.52
2022-11-20T10:44:29.197Z,29.17
2022-11-20T10:47:23.684Z,25.75
2022-11-20T10:49:54.088Z,25.10
2022-11-20T10:52:32.531Z,28.17
2022-11-20T10:55:12.851Z,27.38
2022-11-20T10:57:53.348Z,22.85
2022-11-20T11:00:20.177Z,27.85
2022-11-20T11:02:49.268Z,27.23
2022-11-20T11:07:51.599Z,21.02
2022-11-20T11:10:21.332Z,22.85
2022-11-20T11:12:48.820Z,28.38
2022-11-20T11:15:25.949Z,26.15
2022-11-20T11:17:52.945Z,24.35
2022-11-20T11:20:21.616Z,25.52
2022-11-20T11:22:51.235Z,30.85
2022-11-20T11:25:27.916Z,23.70
2022-11-20T11:27:56.108Z,24.48
2022-11-20T11:30:29.276Z,27.83
2022-11-20T11:33:06.936Z,22.13
2022-11-20T11:35:34.062Z,25.63
2022-11-20T11:38:07.787Z,26.67
2022-11-20T11:40:38.196Z,27.58
2022-11-20T11:43:07.144Z,28.60
2022-11-20T11:45:33.866Z,26.23
2022-11-20T11:48:04.622Z,24.33
2022-11-20T11:50:31.461Z,29.65
2022-11-20T11:53:09.733Z,27.40
2022-11-20T11:55:39.553Z,28.23
2022-11-20T11:58:15.327Z,24.95
2022-11-20T12:00:51.555Z,28.45
2022-11-20T12:03:22.606Z,24.35
2022-11-20T12:05:55.290Z,31.75
2022-11-20T12:08:28.077Z,27.95
2022-11-20T12:10:58.178Z,23.45
2022-11-20T12:13:42.477Z,27.48
2022-11-20T12:16:14.587Z,26.02
2022-11-20T12:18:42.587Z,29.30
2022-11-20T12:21:20.173Z,26.42
2022-11-20T12:24:02.504Z,24.70
2022-11-20T12:26:49.084Z,34.35
2022-11-20T12:29:25.179Z,29.33
2022-11-20T12:32:05.802Z,33.30
2022-11-20T12:34:48.430Z,29.33
2022-11-20T12:37:27.199Z,35.75
2022-11-20T12:39:59.617Z,33.00
2022-11-20T12:42:47.112Z,32.60
2022-11-20T12:45:35.780Z,33.60
2022-11-20T12:48:27.559Z,39.15
2022-11-20T12:51:15.446Z,42.63
2022-11-20T12:53:53.431Z,46.85
2022-11-20T12:56:34.989Z,38.25
2022-11-20T12:59:14.747Z,43.58
2022-11-20T13:01:47.476Z,32.20
2022-11-20T13:04:29.840Z,33.00
2022-11-20T13:06:57.896Z,45.88
2022-11-20T13:09:25.873Z,43.50
2022-11-20T13:12:05.873Z,31.10
2022-11-20T13:14:38.451Z,37.58
2022-11-20T13:17:12.551Z,29.00
2022-11-20T13:19:40.138Z,36.45
2022-11-20T13:22:09.222Z,34.70
2022-11-20T13:27:20.004Z,36.30
2022-11-20T13:29:48.045Z,31.67
2022-11-20T13:32:17.874Z,32.88
2022-11-20T13:34:54.861Z,33.33
2022-11-20T13:37:34.148Z,34.70
2022-11-20T13:40:23.914Z,35.53
2022-11-20T13:43:01.916Z,30.48
2022-11-20T13:45:30.668Z,35.15
2022-11-20T13:47:58.841Z,34.00
2022-11-20T13:50:41.255Z,38.08
2022-11-20T13:53:22.954Z,34.50
2022-11-20T13:55:55.697Z,34.28
2022-11-20T13:58:36.728Z,28.33
2022-11-20T14:01:10.623Z,31.35
2022-11-20T14:04:07.359Z,26.30
2022-11-20T14:06:28.140Z,26.80
2022-11-20T14:08:55.831Z,34.00
2022-11-20T14:11:24.238Z,32.45
2022-11-20T14:13:58.784Z,35.38
2022-11-20T14:16:27.642Z,27.80
2022-11-20T14:18:56.229Z,29.85
2022-11-20T14:21:27.687Z,30.80
2022-11-20T14:24:03.523Z,29.58
2022-11-20T14:26:30.453Z,39.88
2022-11-20T14:28:59.239Z,41.50
2022-11-20T14:31:28.245Z,32.78
2022-11-20T14:33:55.804Z,38.05
2022-11-20T14:36:25.354Z,36.15
2022-11-20T14:38:53.244Z,30.65
2022-11-20T14:41:21.638Z,36.35
2022-11-20T14:43:53.904Z,33.53
2022-11-20T14:46:22.546Z,35.70
2022-11-20T14:48:51.903Z,35.70
2022-11-20T14:51:29.040Z,38.28
2022-11-20T14:53:55.745Z,36.40
2022-11-20T14:56:24.023Z,32.53
2022-11-20T14:58:57.268Z,35.78
2022-11-20T15:01:29.119Z,38.92
2022-11-20T15:04:02.155Z,42.85
2022-11-20T15:06:29.403Z,35.25
2022-11-20T15:08:56.137Z,35.55
2022-11-20T15:11:29.619Z,43.10
2022-11-20T15:13:56.535Z,38.22
2022-11-20T15:16:24.324Z,44.55
2022-11-20T15:18:54.693Z,38.70
2022-11-20T15:21:21.751Z,44.90
2022-11-20T15:23:48.916Z,41.78
2022-11-20T15:26:23.007Z,31.33
2022-11-20T15:28:50.393Z,45.00
2022-11-20T15:31:18.875Z,43.17
2022-11-20T15:33:45.880Z,28.15
2022-11-20T15:36:14.203Z,44.40
2022-11-20T15:38:41.483Z,42.38
2022-11-20T15:41:08.514Z,34.10
2022-11-20T15:43:35.260Z,38.15
2022-11-20T15:46:05.775Z,43.58
2022-11-20T15:48:36.833Z,38.53
2022-11-20T15:51:08.264Z,40.15
2022-11-20T15:53:36.812Z,40.13
2022-11-20T15:56:03.872Z,46.65
2022-11-20T15:58:30.635Z,34.83
2022-11-20T16:00:57.812Z,36.15
2022-11-20T16:03:24.935Z,40.63
2022-11-20T16:05:51.694Z,36.13
2022-11-20T16:08:18.409Z,43.28
2022-11-20T16:10:46.748Z,41.00
2022-11-20T16:13:15.112Z,39.83
2022-11-20T16:15:41.918Z,42.50
2022-11-20T16:18:11.273Z,41.15
2022-11-20T16:20:38.383Z,38.72
2022-11-20T16:23:05.316Z,41.45
2022-11-20T16:25:32.029Z,41.15
2022-11-20T16:28:00.108Z,35.08
2022-11-20T16:30:26.833Z,38.00
2022-11-20T16:32:53.559Z,38.80
2022-11-20T16:35:20.313Z,39.53
2022-11-20T16:37:47.051Z,38.30
2022-11-20T16:40:13.809Z,39.20
2022-11-20T16:42:40.557Z,33.25
2022-11-20T16:45:12.378Z,26.20
2022-11-20T16:47:39.186Z,37.47
2022-11-20T16:50:06.949Z,31.38
2022-11-20T16:52:33.992Z,37.70
2022-11-20T16:55:00.882Z,38.53
2022-11-20T16:57:28.851Z,38.92
2022-11-20T16:59:58.974Z,25.17
2022-11-20T17:02:30.021Z,30.15
2022-11-20T17:04:56.724Z,35.53
2022-11-20T17:07:23.455Z,31.52
2022-11-20T17:09:50.200Z,35.42
2022-11-20T17:12:16.974Z,28.88
2022-11-20T17:14:43.787Z,43.65
2022-11-20T17:17:10.523Z,36.97
2022-11-20T17:19:38.564Z,31.15
2022-11-20T17:22:05.256Z,40.38
2022-11-20T17:24:32.350Z,39.50
2022-11-20T17:26:59.239Z,32.28
2022-11-20T17:29:25.943Z,38.40
2022-11-20T17:31:54.110Z,27.80
2022-11-20T17:47:04.287Z,30.38
2022-11-20T17:49:30.980Z,35.90
2022-11-20T17:51:57.700Z,27.10
2022-11-20T17:54:27.722Z,29.98
2022-11-20T17:56:54.399Z,37.97
2022-11-20T17:59:24.261Z,32.83
2022-11-20T18:01:51.115Z,36.85
2022-11-20T18:04:17.991Z,30.98
2022-11-20T18:06:45.016Z,29.98
2022-11-20T18:09:11.936Z,36.78
2022-11-20T18:11:42.227Z,34.78
2022-11-20T18:14:12.144Z,41.65
2022-11-20T18:16:44.409Z,38.08
2022-11-20T18:19:12.686Z,32.40
2022-11-20T18:21:39.546Z,32.88
2022-11-20T18:24:07.515Z,31.17
2022-11-20T18:26:36.066Z,36.72
2022-11-20T18:29:07.556Z,29.15
2022-11-20T18:31:34.734Z,35.67
2022-11-20T18:34:01.445Z,26.05
2022-11-20T18:36:29.844Z,32.72
2022-11-20T18:38:58.755Z,28.95
2022-11-20T18:41:26.853Z,36.38
2022-11-20T18:43:53.649Z,37.10
2022-11-20T18:46:21.801Z,29.45
2022-11-20T18:48:48.589Z,27.57
2022-11-20T18:51:15.480Z,27.65
2022-11-20T18:53:47.166Z,37.65
2022-11-20T18:56:14.403Z,36.53
2022-11-20T18:58:41.219Z,32.45
2022-11-20T19:01:08.445Z,26.92
2022-11-20T19:03:36.849Z,33.42
2022-11-20T19:06:03.625Z,35.95
2022-11-20T19:08:30.319Z,32.30
2022-11-20T19:11:06.040Z,28.92
2022-11-20T19:13:32.948Z,35.05
2022-11-20T19:16:02.305Z,35.85
2022-11-20T19:18:29.088Z,34.13
2022-11-20T19:20:57.399Z,33.67
2022-11-20T19:23:25.579Z,42.10
2022-11-20T19:25:52.734Z,31.55
2022-11-20T19:28:19.452Z,36.15
2022-11-20T19:30:46.193Z,39.28
2022-11-20T19:33:12.918Z,28.88
2022-11-20T19:35:39.630Z,36.30
2022-11-20T19:38:07.695Z,37.13
2022-11-20T19:40:34.449Z,63.50
2022-11-20T19:43:01.178Z,39.60
2022-11-20T19:45:28.108Z,47.13
2022-11-20T19:48:10.108Z,32.63
2022-11-20T19:50:36.844Z,27.13
2022-11-20T19:53:03.568Z,35.03
2022-11-20T19:55:31.599Z,30.88
2022-11-20T19:57:58.289Z,29.17
2022-11-20T20:00:31.231Z,27.77
2022-11-20T20:03:00.654Z,37.75
2022-11-20T20:05:27.453Z,35.83
2022-11-20T20:07:54.181Z,35.33
2022-11-20T20:10:20.919Z,33.60
2022-11-20T20:12:48.988Z,26.42
2022-11-20T20:15:15.725Z,26.83
2022-11-20T20:17:42.525Z,26.83
2022-11-20T20:20:10.453Z,40.22
2022-11-20T20:22:37.324Z,30.80
2022-11-20T20:25:04.644Z,31.65
2022-11-20T20:27:31.560Z,33.78
2022-11-20T20:29:59.762Z,32.80
2022-11-20T20:32:27.185Z,31.48
2022-11-20T20:34:53.868Z,31.05
2022-11-20T20:37:20.592Z,32.22
2022-11-20T20:39:47.466Z,31.90
2022-11-20T20:42:14.341Z,29.02
2022-11-20T20:44:41.062Z,27.85
2022-11-20T20:47:09.301Z,35.17
2022-11-20T20:49:36.021Z,29.90
2022-11-20T20:52:02.790Z,46.20
2022-11-20T20:54:34.241Z,61.50
2022-11-20T20:57:01.339Z,41.42
2022-11-20T20:59:28.090Z,35.72
2022-11-20T21:01:54.897Z,34.60
2022-11-20T21:04:23.129Z,31.17
2022-11-20T21:06:49.811Z,26.23
2022-11-20T21:09:16.585Z,34.88
2022-11-20T21:11:43.282Z,29.08
2022-11-20T21:14:10.004Z,43.85
2022-11-20T21:16:36.741Z,43.97
2022-11-20T21:19:03.481Z,39.17
2022-11-20T21:21:31.546Z,36.28
2022-11-20T21:23:58.520Z,43.77
2022-11-20T21:26:25.327Z,44.17
2022-11-20T21:28:52.046Z,38.60
2022-11-20T21:31:20.441Z,40.53
2022-11-20T21:33:48.521Z,34.15
2022-11-20T21:36:17.071Z,30.73
2022-11-20T21:38:45.826Z,38.55
2022-11-20T21:41:13.885Z,39.10
2022-11-20T21:43:40.968Z,39.20
2022-11-20T21:46:09.185Z,35.67
2022-11-20T21:48:37.145Z,37.83
2022-11-20T21:51:07.051Z,29.00
2022-11-20T21:53:34.297Z,38.60
2022-11-20T21:56:03.402Z,35.42
2022-11-20T21:58:31.841Z,37.92
2022-11-20T22:00:58.636Z,40.30
2022-11-20T22:03:25.521Z,42.97
2022-11-20T22:05:55.845Z,43.88
2022-11-20T22:08:22.796Z,40.00
2022-11-20T22:10:56.575Z,39.80
2022-11-20T22:13:25.529Z,43.15
2022-11-20T22:16:00.850Z,42.75
2022-11-20T22:18:28.060Z,41.10
2022-11-20T22:20:54.769Z,45.50
2022-11-20T22:23:21.465Z,43.25
2022-11-20T22:25:48.223Z,45.50
2022-11-20T22:28:14.921Z,43.88
2022-11-20T22:30:42.955Z,45.40
2022-11-20T22:33:13.587Z,44.17
2022-11-20T22:35:40.752Z,42.58
2022-11-20T22:38:07.452Z,41.28
2022-11-20T22:40:34.167Z,39.95
2022-11-20T22:43:00.904Z,43.60
2022-11-20T22:45:27.594Z,47.35
2022-11-20T22:47:55.586Z,47.40
2022-11-20T22:50:22.273Z,41.15
2022-11-20T22:52:48.984Z,35.65
2022-11-20T22:55:16.534Z,39.08
2022-11-20T22:57:43.316Z,38.15
2022-11-20T23:00:11.358Z,37.97
2022-11-20T23:02:43.085Z,46.58
2022-11-20T23:05:11.126Z,40.20
2022-11-20T23:07:40.951Z,30.58
2022-11-20T23:10:08.698Z,41.40
2022-11-20T23:12:35.368Z,45.17
2022-11-20T23:15:02.037Z,40.22
2022-11-20T23:17:29.848Z,44.40
2022-11-20T23:19:56.914Z,47.80
2022-11-20T23:22:24.963Z,35.63
2022-11-20T23:24:51.629Z,40.38
2022-11-20T23:27:19.931Z,42.35
2022-11-20T23:29:46.748Z,39.33
2022-11-20T23:32:13.452Z,34.92
2022-11-20T23:34:40.126Z,42.63
2022-11-20T23:37:06.836Z,37.67
2022-11-20T23:39:35.059Z,45.00
2022-11-20T23:42:01.775Z,48.33
2022-11-20T23:44:28.845Z,49.88
2022-11-20T23:46:55.757Z,46.13
2022-11-20T23:49:22.447Z,50.55
2022-11-20T23:51:49.168Z,52.80
2022-11-20T23:54:15.933Z,44.28
2022-11-20T23:56:43.996Z,50.30
2022-11-20T23:59:10.828Z,48.70
